Domov               UVHVVR             MKGP            O straneh              
ZDRAVSTVENO VARSTVO RASTLIN
  MREŽA AGROMET. POSTAJ
 ► PROGNOSTIČNA OBVESTILA
AGROMETEOROLOŠKI PODATKI -
ARSO
OBVLADOVANJE TVEGANJ ZARADI
NEUGODNIH VREMENSKIH RAZMER
  ► NARAVNE NESREČE
  ► SUŠA/MOČA
  ► NAMAKANJE
  ► ŽLED (gozdarstvo)
KARTOGRAFSKI PRIKAZI
SPLETNE POVEZAVE
PROJEKTI IN PUBLIKACIJE

AGROMETEOROLOŠKA MREŽA: VREMENSKE POSTAJE IN FENOLOŠKA OPAZOVANJA

Pregled podatkov za lokacijo Borovnica, meteorološka postaja 27469

Pregled senzorjev na lokaciji

ID Ime Zadnja
vrednost
Datum
zadnje
spremembe
Tip
senzorja
4324 Omočenost lista (U) 0 U 25.3.2019 01:00 A730WET
2195 Padavine (mm) 0 mm 25.3.2019 00:59 Generic 0.2 mm
1684 Relativna vlaga 2 m (% RH) 52,23 % RH 25.3.2019 01:00 Generic 0 - 100 %
1683 Temperatura 2 m (°C) 10,21 °C 25.3.2019 01:00 Generic -40 - +60 °C

Pregled podatkov zadnjih 24 ur

Zap.
št.
Datum in čas Borovnica
Omočenost
lista
Padavine Relativna
vlaga
2
m
Temperatura
2
m
1 25.3.2019 00:00 0 0 52,2 10,2
2 24.3.2019 23:30 0 0 51,1 10,5
3 24.3.2019 23:00 0 0 54,1 9,6
4 24.3.2019 22:30 0 0 48,5 11,3
5 24.3.2019 22:00 0 0 45,9 11,9
6 24.3.2019 21:30 0 0 45,3 12,3
7 24.3.2019 21:00 0 0 43,1 13,1
8 24.3.2019 20:30 0 0 40,2 13,9
9 24.3.2019 20:00 0 0 46,8 12,4
10 24.3.2019 19:30 0 0 38,9 15,2
11 24.3.2019 19:00 0 0 39,2 15,3
12 24.3.2019 18:30 0 0 36 16,9
13 24.3.2019 18:00 0 0 30,5 19,4
14 24.3.2019 17:30 0 0 26,4 21,5
15 24.3.2019 17:00 0 0 25,9 22,7
16 24.3.2019 16:30 0 0 26,1 22,8
17 24.3.2019 16:00 0 0 27,3 22,7
18 24.3.2019 15:30 0 0 27,3 22,6
19 24.3.2019 15:00 0 0 30,4 22,1
20 24.3.2019 14:30 0 0 32,3 21,8
21 24.3.2019 14:00 0 0 34,9 21
22 24.3.2019 13:30 0 0 37 20,6
23 24.3.2019 13:00 0 0 37,2 19,8
24 24.3.2019 12:30 0 0 40,2 19,2
25 24.3.2019 12:00 0 0 44,9 17,6
26 24.3.2019 11:30 0 0 47 16,5
27 24.3.2019 11:00 0 0 49,7 15,4
28 24.3.2019 10:30 0 0 53,8 14,1
29 24.3.2019 10:00 0 0 60,3 11,9
30 24.3.2019 09:30 0 0 67,5 10
31 24.3.2019 09:00 0 0 72,9 8,5
32 24.3.2019 08:30 0 0 80,7 6,3
33 24.3.2019 08:00 6 0 92,9 4,2
34 24.3.2019 07:30 10 0 98,6 1,3
35 24.3.2019 07:00 6 0 98,6 -1,1
36 24.3.2019 06:30 1 0 98,5 -2,2
37 24.3.2019 06:00 1 0 98,2 -2,4
38 24.3.2019 05:30 1 0 98,1 -1,3
39 24.3.2019 05:00 1 0 97,8 -1,9
40 24.3.2019 04:30 2 0 97,8 -1,1
41 24.3.2019 04:00 10 0 97,4 -1,2
42 24.3.2019 03:30 10 0 97 -0,9
43 24.3.2019 03:00 10 0 96,8 -0,6
44 24.3.2019 02:30 10 0 96,2 -0,4
45 24.3.2019 02:00 10 0 95,8 0
46 24.3.2019 01:30 10 0 94,7 0,1
47 24.3.2019 01:00 10 0 93,8 1,1
48 24.3.2019 00:30 10 0 92,8 1,3
© 2011 Ministrstvo za kmetijstvo, gozdarstvo in prehrano. Vse pravice pridržane.